Terminal Aerodrome Forecast
Issued by NWS

Home | Current Version | Previous Version | Text Only | Print | Product List | Glossary On
Versions: 1 2 3 4 5 6 7 8 9 10 11 12 13 14 15 16 17 18 19
000
FTUS43 KAPX 310500
TAFPLN
TAF
KPLN 310539Z 3106/0106 VRB03KT P6SM VCSH BKN070
     FM311200 VRB04KT P6SM BKN060
     FM311400 24011KT P6SM BKN080
     FM311800 26007KT P6SM SCT040 SCT200
     FM010000 VRB03KT P6SM SCT060 SCT200=

USA.gov is the U.S. government's official web portal to all federal, state and local government web resources and services.